Bussey, IA

1:25 AM CDT on September 04, 2015 (GMT -0500)
Bos Landen | | Change Station
CLOSE
Current Station
Personal Weather Station
Location: Pella, IA
Elevation: 820 ft
Nearby Weather Stations

Elev 820 ft 41.39 °N, 92.95 °W | Updated 16 minutes ago

Partly Cloudy
Partly Cloudy
73.0 °F
Feels Like 73.0 °F
N
0.0
Wind Variable Wind from SW

Today
High -- | Low -- °F
--% Chance of Precip.
Yesterday
High -- | Low -- °F
Precip. -- in
6:40 AM 7:39 PM
Waning Gibbous, 62% visible
Pressure 29.94 in
Visibility 10.0 miles
Clouds Overcast 12000 ft
Dew Point 71 °F
Humidity 94%
Rainfall 0.00 in
Snow Depth Not available.
UV 0 out of 12
Pollen 11.50 out of 12
Air Quality Not available.
Flu Activity Not available.
METAR KOXV 040615Z AUTO VRB04KT 10SM OVC120 24/20 A2994 RMK AO2
Pressure 29.94 in
Visibility 10.0 miles
Clouds Overcast 12000 ft
Dew Point 71 °F
Humidity 94%
Rainfall 0.00 in
Snow Depth Not available.
UV 0 out of 12
Pollen 11.50 out of 12
Air Quality Not available.
Flu Activity Not available.
METAR KOXV 040615Z AUTO VRB04KT 10SM OVC120 24/20 A2994 RMK AO2

10-Day Weather Forecast

×

Almanac

Astronomy

Sep. 04, 2015 Rise Set
Actual Time
Civil Twilight
Nautical Twilight
Astronomical Twilight
Moon
Length of Visible Light
Length of Day
Tomorrow will be .
, % of the Moon is Illuminated

Today's Extremes

State Highs State Lows

Community

WunderPhotos

Upload Photos

1,852,132 photos uploaded!

WunderBlogs® & News

Nearby

Air Quality

  Air Quality AQ Index Pollutant
Not available.

Snow Depth

Station Depth Elevation

Earthquake Activity

City Distance Mag. Time & Date
Minimum magnitude displayed is 2.5.

Coastal Water Temperatures

Place Temperature

Stations

Nearby Weather Stations

Station Location Temp. Windchill Dew Point Humidity Wind Precip. Elev Updated Type